createdAt,value
2018-08-18T00:00:23.424Z,32.4
2018-08-18T00:01:25.872Z,32.4
2018-08-18T00:02:28.323Z,32.5
2018-08-18T00:03:30.493Z,32.5
2018-08-18T00:04:32.956Z,32.5
2018-08-18T00:05:35.094Z,32.5
2018-08-18T00:06:37.277Z,32.5
2018-08-18T00:07:39.428Z,32.5
2018-08-18T00:08:41.621Z,32.5
2018-08-18T00:09:43.823Z,32.5
2018-08-18T00:10:46.265Z,32.5
2018-08-18T00:11:48.716Z,32.5
2018-08-18T00:12:50.880Z,32.5
2018-08-18T00:13:53.334Z,32.5
2018-08-18T00:14:55.524Z,32.5
2018-08-18T00:15:57.700Z,32.5
2018-08-18T00:17:00.136Z,32.5
2018-08-18T00:18:02.025Z,32.5
2018-08-18T00:19:04.470Z,32.5
2018-08-18T00:20:06.637Z,32.5
2018-08-18T00:21:08.830Z,32.5
2018-08-18T00:22:11.285Z,32.5
2018-08-18T00:23:13.198Z,32.5
2018-08-18T00:24:15.385Z,32.5
2018-08-18T00:25:17.559Z,32.5
2018-08-18T00:26:19.743Z,32.5
2018-08-18T00:27:21.095Z,32.5
2018-08-18T00:28:23.290Z,32.5
2018-08-18T00:29:25.160Z,32.5
2018-08-18T00:30:27.372Z,32.5
2018-08-18T00:31:29.252Z,32.5
2018-08-18T00:32:31.444Z,32.5
2018-08-18T00:33:33.596Z,32.5
2018-08-18T00:34:35.474Z,32.5
2018-08-18T00:35:37.685Z,32.5
2018-08-18T00:36:39.563Z,32.6
2018-08-18T00:37:42.012Z,32.5
2018-08-18T00:38:44.456Z,32.5
2018-08-18T00:39:46.910Z,32.6
2018-08-18T00:40:49.062Z,32.6
2018-08-18T00:41:51.235Z,32.5
2018-08-18T00:42:53.121Z,32.6
2018-08-18T00:43:55.284Z,32.6
2018-08-18T00:44:57.161Z,32.6
2018-08-18T00:45:59.596Z,32.6
2018-08-18T00:47:01.506Z,32.6
2018-08-18T00:48:03.375Z,32.6
2018-08-18T00:49:05.821Z,32.6
2018-08-18T00:50:08.268Z,32.6
2018-08-18T00:51:10.435Z,32.6
2018-08-18T00:52:12.886Z,32.6
2018-08-18T00:53:15.058Z,32.6
2018-08-18T00:54:17.263Z,32.6
2018-08-18T00:55:19.441Z,32.6
2018-08-18T00:56:21.895Z,32.6
2018-08-18T00:57:23.797Z,32.6
2018-08-18T00:58:25.976Z,32.6
2018-08-18T00:59:28.425Z,32.6
2018-08-18T01:00:30.323Z,32.6
2018-08-18T01:01:32.514Z,32.6
2018-08-18T01:02:34.417Z,32.6
2018-08-18T01:03:36.585Z,32.6
2018-08-18T01:04:38.493Z,32.6
2018-08-18T01:05:40.951Z,32.6
2018-08-18T01:06:42.835Z,32.6
2018-08-18T01:07:45.293Z,32.6
2018-08-18T01:08:47.727Z,32.6
2018-08-18T01:09:49.900Z,32.6
2018-08-18T01:10:52.602Z,32.6
2018-08-18T01:11:55.731Z,32.6
2018-08-18T01:12:59.073Z,32.6
2018-08-18T01:14:02.022Z,32.6
2018-08-18T01:15:04.584Z,32.6
2018-08-18T01:16:07.065Z,32.6
2018-08-18T01:17:09.507Z,32.6
2018-08-18T01:18:11.680Z,32.6
2018-08-18T01:19:13.857Z,32.6
2018-08-18T01:20:16.295Z,32.6
2018-08-18T01:21:18.806Z,32.6
2018-08-18T01:22:20.737Z,32.6
2018-08-18T01:23:22.920Z,32.6
2018-08-18T01:24:24.791Z,32.6
2018-08-18T01:25:27.236Z,32.6
2018-08-18T01:26:29.685Z,32.6
2018-08-18T01:27:32.131Z,32.6
2018-08-18T01:28:34.299Z,32.6
2018-08-18T01:29:35.936Z,32.6
2018-08-18T01:30:38.112Z,32.6
2018-08-18T01:31:40.260Z,32.6
2018-08-18T01:32:42.421Z,32.6
2018-08-18T01:33:44.579Z,32.6
2018-08-18T01:34:47.037Z,32.6
2018-08-18T01:35:49.243Z,32.6
2018-08-18T01:36:51.695Z,32.6
2018-08-18T01:37:54.144Z,32.6
2018-08-18T01:38:55.767Z,32.6
2018-08-18T01:39:57.958Z,32.6
2018-08-18T01:40:59.842Z,32.6
2018-08-18T01:42:01.767Z,32.6
2018-08-18T01:43:03.941Z,32.7
2018-08-18T01:44:06.382Z,32.7
2018-08-18T01:45:08.551Z,32.7
2018-08-18T01:46:10.741Z,32.7
2018-08-18T01:47:12.377Z,32.7
2018-08-18T01:48:14.245Z,32.7
2018-08-18T01:49:16.690Z,32.7
2018-08-18T01:50:18.560Z,32.6
2018-08-18T01:51:20.747Z,32.7
2018-08-18T01:52:22.384Z,32.7
2018-08-18T01:53:24.299Z,32.7
2018-08-18T01:54:26.749Z,32.7
2018-08-18T01:55:28.921Z,32.7
2018-08-18T01:56:31.365Z,32.7
2018-08-18T01:57:33.819Z,32.7
2018-08-18T01:58:36.264Z,32.7
2018-08-18T01:59:38.765Z,32.7
2018-08-18T02:00:41.226Z,32.7
2018-08-18T02:01:43.097Z,32.7
2018-08-18T02:02:45.309Z,32.7
2018-08-18T02:03:47.486Z,32.7
2018-08-18T02:04:49.942Z,32.7
2018-08-18T02:05:52.384Z,32.7
2018-08-18T02:06:54.270Z,32.7
2018-08-18T02:07:56.714Z,32.7
2018-08-18T02:08:58.891Z,32.7
2018-08-18T02:10:01.042Z,32.7
2018-08-18T02:11:03.214Z,32.7
2018-08-18T02:12:05.649Z,32.7
2018-08-18T02:13:08.097Z,32.7
2018-08-18T02:14:10.251Z,32.7
2018-08-18T02:15:12.130Z,32.7
2018-08-18T02:16:14.576Z,32.7
2018-08-18T02:17:16.469Z,32.7
2018-08-18T02:18:18.385Z,32.7
2018-08-18T02:19:20.295Z,32.7
2018-08-18T02:20:22.742Z,32.7
2018-08-18T02:21:24.660Z,32.7
2018-08-18T02:22:26.562Z,32.7
2018-08-18T02:23:29.005Z,32.7
2018-08-18T02:24:31.464Z,32.7
2018-08-18T02:25:33.904Z,32.7
2018-08-18T02:26:36.382Z,32.7
2018-08-18T02:27:38.838Z,32.7
2018-08-18T02:28:41.293Z,32.7
2018-08-18T02:29:43.740Z,32.7
2018-08-18T02:30:45.906Z,32.7
2018-08-18T02:31:47.801Z,32.7
2018-08-18T02:32:50.264Z,32.7
2018-08-18T02:33:52.448Z,32.7
2018-08-18T02:34:54.369Z,32.7
2018-08-18T02:35:56.807Z,32.7
2018-08-18T02:36:58.979Z,32.7
2018-08-18T02:38:01.154Z,32.7
2018-08-18T02:39:03.332Z,32.7
2018-08-18T02:40:06.059Z,32.7
2018-08-18T02:41:08.841Z,32.7
2018-08-18T02:42:11.036Z,32.7
2018-08-18T02:43:13.231Z,32.8
2018-08-18T02:44:15.409Z,32.8
2018-08-18T02:45:17.885Z,32.8
2018-08-18T02:46:20.326Z,32.8
2018-08-18T02:47:22.781Z,32.8
2018-08-18T02:48:25.224Z,32.8
2018-08-18T02:49:27.672Z,32.8
2018-08-18T02:50:30.124Z,32.8
2018-08-18T02:51:32.293Z,32.8
2018-08-18T02:52:34.471Z,32.8
2018-08-18T02:53:36.922Z,32.8
2018-08-18T02:54:39.373Z,32.8
2018-08-18T02:55:41.824Z,32.8
2018-08-18T02:56:44.268Z,32.8
2018-08-18T02:57:46.184Z,32.8
2018-08-18T02:58:48.335Z,32.8
2018-08-18T02:59:50.515Z,32.8
2018-08-18T03:00:52.422Z,32.8
2018-08-18T03:01:54.290Z,32.8
2018-08-18T03:02:56.737Z,32.8
2018-08-18T03:03:59.191Z,32.8
2018-08-18T03:05:01.101Z,32.8
2018-08-18T03:06:02.731Z,32.8
2018-08-18T03:07:04.906Z,32.8
2018-08-18T03:08:06.502Z,32.8
2018-08-18T03:09:08.689Z,32.8
2018-08-18T03:10:11.131Z,32.8
2018-08-18T03:11:13.065Z,32.8
2018-08-18T03:12:15.250Z,32.7
2018-08-18T03:13:17.694Z,32.7
2018-08-18T03:14:19.883Z,32.7
2018-08-18T03:15:22.336Z,32.7
2018-08-18T03:16:24.786Z,32.7
2018-08-18T03:17:26.990Z,32.7
2018-08-18T03:18:29.161Z,32.7
2018-08-18T03:19:31.333Z,32.7
2018-08-18T03:20:33.220Z,32.6
2018-08-18T03:21:35.661Z,32.6
2018-08-18T03:22:37.853Z,32.6
2018-08-18T03:23:40.029Z,32.6
2018-08-18T03:24:42.479Z,32.6
2018-08-18T03:25:44.923Z,32.6
2018-08-18T03:26:47.102Z,32.6
2018-08-18T03:27:49.000Z,32.6
2018-08-18T03:28:51.175Z,32.6
2018-08-18T03:29:53.648Z,32.5
2018-08-18T03:30:54.985Z,32.5
2018-08-18T03:31:57.438Z,32.5
2018-08-18T03:32:59.875Z,32.5
2018-08-18T03:34:02.073Z,32.5
2018-08-18T03:35:04.523Z,32.5
2018-08-18T03:36:06.690Z,32.5
2018-08-18T03:37:08.860Z,32.5
2018-08-18T03:38:10.746Z,32.5
2018-08-18T03:39:12.932Z,32.5
2018-08-18T03:40:15.375Z,32.5
2018-08-18T03:41:17.552Z,32.5
2018-08-18T03:42:19.992Z,32.5
2018-08-18T03:43:22.442Z,32.4
2018-08-18T03:44:24.876Z,32.5
2018-08-18T03:45:27.356Z,32.4
2018-08-18T03:46:29.808Z,32.4
2018-08-18T03:47:31.944Z,32.4
2018-08-18T03:48:34.389Z,32.4
2018-08-18T03:49:36.824Z,32.4
2018-08-18T03:50:38.977Z,32.4
2018-08-18T03:51:41.415Z,32.4
2018-08-18T03:52:43.584Z,32.4
2018-08-18T03:53:45.774Z,32.4
2018-08-18T03:54:47.968Z,32.3
2018-08-18T03:55:50.167Z,32.3
2018-08-18T03:56:52.063Z,32.3
2018-08-18T03:57:54.243Z,32.3
2018-08-18T03:58:56.701Z,32.3
2018-08-18T03:59:58.895Z,32.3
2018-08-18T04:01:00.508Z,32.3
2018-08-18T04:02:03.252Z,32.3
2018-08-18T04:03:05.722Z,32.3
2018-08-18T04:04:08.168Z,32.3
2018-08-18T04:05:10.342Z,32.3
2018-08-18T04:06:12.501Z,32.3
2018-08-18T04:07:14.398Z,32.3
2018-08-18T04:08:16.848Z,32.3
2018-08-18T04:09:19.634Z,32.3
2018-08-18T04:10:22.416Z,32.3
2018-08-18T04:11:24.593Z,32.3
2018-08-18T04:12:27.035Z,32.3
2018-08-18T04:13:29.185Z,32.3
2018-08-18T04:14:31.084Z,32.3
2018-08-18T04:15:33.561Z,32.3
2018-08-18T04:16:35.445Z,32.3
2018-08-18T04:17:37.628Z,32.3
2018-08-18T04:18:39.811Z,32.3
2018-08-18T04:19:42.266Z,32.3
2018-08-18T04:20:44.717Z,32.3
2018-08-18T04:21:46.625Z,32.2
2018-08-18T04:22:48.774Z,32.2
2018-08-18T04:23:51.224Z,32.2
2018-08-18T04:24:53.663Z,32.2
2018-08-18T04:25:56.107Z,32.2
2018-08-18T04:26:58.271Z,32.2
2018-08-18T04:28:00.716Z,32.2
2018-08-18T04:29:02.902Z,32.2
2018-08-18T04:30:04.784Z,32.2
2018-08-18T04:31:06.958Z,32.2
2018-08-18T04:32:09.134Z,32.2
2018-08-18T04:33:11.305Z,32.2
2018-08-18T04:34:13.772Z,32.2
2018-08-18T04:35:16.351Z,32.2
2018-08-18T04:36:18.654Z,32.2
2018-08-18T04:37:20.271Z,32.2
2018-08-18T04:38:22.446Z,32.2
2018-08-18T04:39:24.624Z,32.2
2018-08-18T04:40:26.536Z,32.2
2018-08-18T04:41:28.711Z,32.2
2018-08-18T04:42:30.304Z,32.2
2018-08-18T04:43:32.493Z,32.2
2018-08-18T04:44:34.939Z,32.2
2018-08-18T04:45:36.808Z,32.2
2018-08-18T04:46:39.250Z,32.2
2018-08-18T04:47:41.701Z,32.2
2018-08-18T04:48:43.839Z,32.2
2018-08-18T04:49:46.024Z,32.2
2018-08-18T04:50:48.206Z,32.2
2018-08-18T04:51:50.403Z,32.2
2018-08-18T04:52:52.572Z,32.2
2018-08-18T04:53:55.026Z,32.2
2018-08-18T04:54:57.464Z,32.2
2018-08-18T04:55:59.636Z,32.2
2018-08-18T04:57:02.377Z,32.2
2018-08-18T04:58:04.722Z,32.2
2018-08-18T04:59:07.178Z,32.2
2018-08-18T05:00:09.056Z,32.2
2018-08-18T05:01:11.509Z,32.2
2018-08-18T05:02:13.683Z,32.2
2018-08-18T05:03:15.321Z,32.2
2018-08-18T05:04:17.792Z,32.2
2018-08-18T05:05:19.977Z,32.2
2018-08-18T05:06:22.428Z,32.2
2018-08-18T05:07:24.886Z,32.2
2018-08-18T05:08:26.773Z,32.2
2018-08-18T05:09:28.992Z,32.2
2018-08-18T05:10:31.435Z,32.2
2018-08-18T05:11:34.015Z,32.2
2018-08-18T05:12:36.372Z,32.2
2018-08-18T05:13:38.516Z,32.2
2018-08-18T05:14:40.402Z,32.2
2018-08-18T05:15:42.325Z,32.2
2018-08-18T05:16:44.778Z,32.2
2018-08-18T05:17:47.228Z,32.2
2018-08-18T05:18:49.465Z,32.2
2018-08-18T05:19:52.048Z,32.2
2018-08-18T05:20:53.940Z,32.2
2018-08-18T05:21:55.837Z,32.2
2018-08-18T05:22:58.278Z,32.2
2018-08-18T05:24:00.154Z,32.2
2018-08-18T05:25:02.328Z,32.2
2018-08-18T05:26:04.776Z,32.2
2018-08-18T05:27:06.927Z,32.2
2018-08-18T05:28:09.076Z,32.2
2018-08-18T05:29:11.256Z,32.2
2018-08-18T05:30:13.717Z,32.2
2018-08-18T05:31:15.866Z,32.2
2018-08-18T05:32:18.046Z,32.2
2018-08-18T05:33:20.490Z,32.2
2018-08-18T05:34:22.634Z,32.2
2018-08-18T05:35:24.530Z,32.2
2018-08-18T05:36:27.055Z,32.2
2018-08-18T05:37:28.996Z,32.2
2018-08-18T05:38:31.147Z,32.2
2018-08-18T05:39:33.329Z,32.2
2018-08-18T05:40:35.511Z,32.2
2018-08-18T05:41:37.961Z,32.2
2018-08-18T05:42:40.123Z,32.2
2018-08-18T05:43:41.745Z,32.2
2018-08-18T05:44:43.933Z,32.2
2018-08-18T05:45:46.101Z,32.2
2018-08-18T05:46:48.610Z,32.2
2018-08-18T05:47:51.058Z,32.2
2018-08-18T05:48:53.538Z,32.2
2018-08-18T05:49:55.989Z,32.2
2018-08-18T05:50:58.456Z,32.2
2018-08-18T05:52:00.646Z,32.2
2018-08-18T05:53:03.099Z,32.2
2018-08-18T05:54:05.556Z,32.2
2018-08-18T05:55:07.707Z,32.2
2018-08-18T05:56:10.165Z,32.2
2018-08-18T05:57:12.612Z,32.2
2018-08-18T05:58:14.779Z,32.2
2018-08-18T05:59:16.945Z,32.2
2018-08-18T06:00:19.135Z,32.2
2018-08-18T06:01:20.499Z,32.2
2018-08-18T06:02:22.942Z,32.2
2018-08-18T06:03:24.861Z,32.2
2018-08-18T06:04:26.741Z,32.2
2018-08-18T06:05:29.186Z,32.2
2018-08-18T06:06:31.412Z,32.2
2018-08-18T06:07:33.850Z,32.2
2018-08-18T06:08:36.031Z,32.2
2018-08-18T06:09:38.204Z,32.2
2018-08-18T06:10:40.390Z,32.2
2018-08-18T06:11:42.562Z,32.2
2018-08-18T06:12:44.744Z,32.2
2018-08-18T06:13:46.911Z,32.2
2018-08-18T06:14:49.085Z,32.2
2018-08-18T06:15:51.264Z,32.2
2018-08-18T06:16:53.173Z,32.2
2018-08-18T06:17:55.367Z,32.2
2018-08-18T06:18:57.263Z,32.1
2018-08-18T06:19:59.459Z,32.2
2018-08-18T06:21:01.635Z,32.1
2018-08-18T06:22:04.084Z,32.2
2018-08-18T06:23:06.257Z,32.2
2018-08-18T06:24:08.169Z,32.1
2018-08-18T06:25:10.358Z,32.1
2018-08-18T06:26:12.806Z,32.1
2018-08-18T06:27:15.289Z,32.2
2018-08-18T06:28:17.717Z,32.1
2018-08-18T06:29:19.892Z,32.2
2018-08-18T06:30:22.402Z,32.2
2018-08-18T06:31:24.027Z,32.2
2018-08-18T06:32:26.505Z,32.1
2018-08-18T06:33:28.690Z,32.1
2018-08-18T06:34:30.789Z,32.2
2018-08-18T06:35:33.515Z,32.1
2018-08-18T06:36:35.661Z,32.1
2018-08-18T06:37:38.172Z,32.1
2018-08-18T06:38:40.068Z,32.1
2018-08-18T06:39:42.500Z,32.1
2018-08-18T06:40:44.760Z,32.1
2018-08-18T06:41:47.887Z,32.1
2018-08-18T06:42:50.758Z,32.1
2018-08-18T06:43:52.944Z,32.2
2018-08-18T06:44:55.134Z,32.1
2018-08-18T06:45:57.316Z,32.1
2018-08-18T06:46:59.540Z,32.1
2018-08-18T06:48:01.718Z,32.1
2018-08-18T06:49:03.869Z,32.2
2018-08-18T06:50:06.357Z,32.1
2018-08-18T06:51:08.526Z,32.1
2018-08-18T06:52:10.991Z,32.1
2018-08-18T06:53:13.176Z,32.1
2018-08-18T06:54:15.163Z,32.1
2018-08-18T06:55:18.543Z,32.1
2018-08-18T06:56:20.536Z,32.1
2018-08-18T06:57:22.724Z,32.1
2018-08-18T06:58:24.906Z,32.1
2018-08-18T06:59:26.803Z,32.1
2018-08-18T07:00:28.700Z,32.1
2018-08-18T07:01:31.147Z,32.1
2018-08-18T07:02:33.340Z,32.1
2018-08-18T07:03:35.508Z,32.1
2018-08-18T07:04:37.952Z,32.1
2018-08-18T07:05:40.400Z,32.1
2018-08-18T07:06:42.853Z,32.1
2018-08-18T07:07:45.038Z,32.1
2018-08-18T07:08:47.228Z,32.1
2018-08-18T07:09:49.432Z,32.1
2018-08-18T07:10:51.052Z,32.1
2018-08-18T07:11:53.513Z,32.1
2018-08-18T07:12:55.976Z,32.1
2018-08-18T07:13:58.160Z,32.1
2018-08-18T07:15:00.057Z,32.1
2018-08-18T07:16:02.505Z,32.1
2018-08-18T07:17:04.399Z,32.1
2018-08-18T07:18:06.880Z,32.1
2018-08-18T07:19:09.338Z,32.1
2018-08-18T07:20:11.240Z,32.1
2018-08-18T07:21:13.418Z,32.1
2018-08-18T07:22:15.603Z,32.1
2018-08-18T07:23:17.788Z,32.1
2018-08-18T07:24:19.702Z,32.1
2018-08-18T07:25:22.134Z,32.1
2018-08-18T07:26:24.311Z,32.1
2018-08-18T07:27:26.760Z,32.1
2018-08-18T07:28:28.767Z,32.1
2018-08-18T07:29:31.339Z,32.1
2018-08-18T07:30:33.775Z,32.1
2018-08-18T07:31:35.950Z,32.1
2018-08-18T07:32:38.096Z,32.1
2018-08-18T07:33:40.535Z,32.1
2018-08-18T07:34:42.173Z,32.1
2018-08-18T07:35:44.383Z,32.1
2018-08-18T07:36:46.558Z,32.1
2018-08-18T07:37:48.751Z,32.1
2018-08-18T07:38:50.940Z,32.1
2018-08-18T07:39:53.396Z,32.1
2018-08-18T07:40:55.843Z,32.1
2018-08-18T07:41:58.004Z,32.1
2018-08-18T07:42:59.927Z,32.1
2018-08-18T07:44:02.082Z,32.1
2018-08-18T07:45:04.259Z,32.1
2018-08-18T07:46:06.431Z,32.1
2018-08-18T07:47:08.330Z,32.2
2018-08-18T07:48:11.163Z,32.1
2018-08-18T07:49:14.001Z,32.2
2018-08-18T07:50:16.164Z,32.2
2018-08-18T07:51:18.347Z,32.1
2018-08-18T07:52:20.542Z,32.1
2018-08-18T07:53:23.177Z,32.1
2018-08-18T07:54:25.720Z,32.2
2018-08-18T07:55:27.360Z,32.2
2018-08-18T07:56:29.800Z,32.2
2018-08-18T07:57:32.254Z,32.2
2018-08-18T07:58:34.414Z,32.2
2018-08-18T07:59:36.841Z,32.2
2018-08-18T08:00:38.901Z,32.2
2018-08-18T08:01:41.351Z,32.2
2018-08-18T08:02:43.799Z,32.2
2018-08-18T08:03:45.981Z,32.2
2018-08-18T08:04:48.446Z,32.1
2018-08-18T08:05:50.988Z,32.1
2018-08-18T08:06:53.042Z,32.1
2018-08-18T08:07:55.218Z,32.1
2018-08-18T08:08:57.116Z,32.1
2018-08-18T08:09:59.025Z,32.2
2018-08-18T08:11:01.465Z,32.2
2018-08-18T08:12:03.925Z,32.2
2018-08-18T08:13:06.106Z,32.2
2018-08-18T08:14:08.552Z,32.1
2018-08-18T08:15:10.997Z,32.2
2018-08-18T08:16:13.196Z,32.2
2018-08-18T08:17:14.800Z,32.1
2018-08-18T08:18:17.359Z,32.2
2018-08-18T08:19:19.547Z,32.1
2018-08-18T08:20:21.418Z,32.2
2018-08-18T08:21:23.595Z,32.1
2018-08-18T08:22:25.777Z,32.1
2018-08-18T08:23:28.224Z,32.1
2018-08-18T08:24:30.697Z,32.1
2018-08-18T08:25:32.583Z,32.2
2018-08-18T08:26:35.027Z,32.1
2018-08-18T08:27:37.180Z,32.1
2018-08-18T08:28:39.401Z,32.1
2018-08-18T08:29:41.587Z,32.1
2018-08-18T08:30:44.032Z,32.1
2018-08-18T08:31:46.207Z,32.1
2018-08-18T08:32:48.651Z,32.1
2018-08-18T08:33:50.846Z,32.1
2018-08-18T08:34:53.016Z,32.1
2018-08-18T08:35:55.199Z,32.1
2018-08-18T08:36:57.107Z,32.1
2018-08-18T08:37:59.275Z,32.1
2018-08-18T08:39:01.168Z,32.1
2018-08-18T08:40:03.612Z,32.1
2018-08-18T08:41:05.554Z,32.1
2018-08-18T08:42:07.701Z,32.1
2018-08-18T08:43:09.898Z,32.1
2018-08-18T08:44:12.106Z,32.1
2018-08-18T08:45:14.250Z,32.1
2018-08-18T08:46:16.393Z,32.1
2018-08-18T08:47:18.286Z,32.1
2018-08-18T08:48:20.191Z,32.2
2018-08-18T08:49:22.667Z,32.1
2018-08-18T08:50:25.103Z,32.1
2018-08-18T08:51:27.584Z,32.2
2018-08-18T08:52:30.026Z,32.2
2018-08-18T08:53:32.197Z,32.1
2018-08-18T08:54:34.655Z,32.2
2018-08-18T08:55:37.122Z,32.1
2018-08-18T08:56:39.306Z,32.1
2018-08-18T08:57:41.747Z,32.1
2018-08-18T08:58:44.243Z,32.1
2018-08-18T08:59:46.424Z,32.1
2018-08-18T09:00:48.880Z,32.2
2018-08-18T09:01:51.067Z,32.1
2018-08-18T09:02:53.514Z,32.1
2018-08-18T09:03:55.691Z,32.1
2018-08-18T09:04:58.161Z,32.2
2018-08-18T09:06:00.314Z,32.2
2018-08-18T09:07:02.791Z,32.1
2018-08-18T09:08:05.246Z,32.1
2018-08-18T09:09:07.695Z,32.1
2018-08-18T09:10:09.971Z,32.1
2018-08-18T09:11:12.510Z,32.1
2018-08-18T09:12:14.388Z,32.1
2018-08-18T09:13:16.564Z,32.1
2018-08-18T09:14:18.738Z,32.1
2018-08-18T09:15:21.410Z,32.1
2018-08-18T09:16:23.576Z,32.1
2018-08-18T09:17:26.027Z,32.1
2018-08-18T09:18:28.482Z,32.1
2018-08-18T09:19:30.927Z,32.1
2018-08-18T09:20:33.364Z,32.1
2018-08-18T09:21:35.229Z,32.1
2018-08-18T09:22:37.126Z,32.1
2018-08-18T09:23:39.575Z,32.2
2018-08-18T09:24:41.195Z,32.1
2018-08-18T09:25:42.826Z,32.1
2018-08-18T09:26:45.301Z,32.1
2018-08-18T09:27:47.767Z,32.1
2018-08-18T09:28:49.700Z,32.2
2018-08-18T09:29:51.868Z,32.2
2018-08-18T09:30:53.750Z,32.2
2018-08-18T09:31:56.201Z,32.1
2018-08-18T09:32:58.121Z,32.1
2018-08-18T09:34:00.565Z,32.2
2018-08-18T09:35:03.010Z,32.2
2018-08-18T09:36:05.455Z,32.1
2018-08-18T09:37:07.369Z,32.1
2018-08-18T09:38:09.274Z,32.2
2018-08-18T09:39:11.450Z,32.2
2018-08-18T09:40:13.896Z,32.2
2018-08-18T09:41:16.338Z,32.1
2018-08-18T09:42:18.790Z,32.1
2018-08-18T09:43:20.950Z,32.2
2018-08-18T09:44:23.400Z,32.1
2018-08-18T09:45:25.966Z,32.2
2018-08-18T09:46:28.927Z,32.1
2018-08-18T09:47:30.866Z,32.1
2018-08-18T09:48:32.763Z,32.1
2018-08-18T09:49:34.925Z,32.1
2018-08-18T09:50:37.107Z,32.1
2018-08-18T09:51:39.577Z,32.1
2018-08-18T09:52:42.037Z,32.1
2018-08-18T09:53:44.208Z,32.1
2018-08-18T09:54:46.380Z,32.1
2018-08-18T09:55:48.559Z,32.1
2018-08-18T09:56:50.763Z,32.1
2018-08-18T09:57:52.944Z,32.1
2018-08-18T09:58:55.134Z,32.1
2018-08-18T09:59:57.278Z,32.1
2018-08-18T10:00:59.468Z,32.1
2018-08-18T10:02:01.639Z,32.1
2018-08-18T10:03:04.087Z,32.2
2018-08-18T10:04:06.270Z,32.2
2018-08-18T10:05:08.437Z,32.2
2018-08-18T10:06:10.621Z,32.2
2018-08-18T10:07:13.063Z,32.2
2018-08-18T10:08:14.975Z,32.1
2018-08-18T10:09:17.417Z,32.2
2018-08-18T10:10:19.867Z,32.2
2018-08-18T10:11:22.032Z,32.2
2018-08-18T10:12:24.218Z,32.2
2018-08-18T10:13:26.411Z,32.2
2018-08-18T10:14:28.874Z,32.2
2018-08-18T10:15:31.329Z,32.2
2018-08-18T10:16:33.771Z,32.2
2018-08-18T10:17:35.368Z,32.2
2018-08-18T10:18:37.546Z,32.2
2018-08-18T10:19:40.003Z,32.2
2018-08-18T10:20:42.160Z,32.2
2018-08-18T10:21:44.066Z,32.2
2018-08-18T10:22:45.947Z,32.2
2018-08-18T10:23:48.095Z,32.2
2018-08-18T10:24:49.978Z,32.2
2018-08-18T10:25:52.143Z,32.2
2018-08-18T10:26:54.308Z,32.2
2018-08-18T10:27:56.753Z,32.2
2018-08-18T10:28:58.943Z,32.2
2018-08-18T10:30:01.388Z,32.2
2018-08-18T10:31:03.284Z,32.2
2018-08-18T10:32:05.778Z,32.2
2018-08-18T10:33:08.240Z,32.2
2018-08-18T10:34:10.719Z,32.1
2018-08-18T10:35:13.169Z,32.2
2018-08-18T10:36:15.348Z,32.1
2018-08-18T10:37:17.801Z,32.1
2018-08-18T10:38:19.957Z,32.2
2018-08-18T10:39:22.394Z,32.1
2018-08-18T10:40:24.552Z,32.1
2018-08-18T10:41:27.001Z,32.2
2018-08-18T10:42:29.177Z,32.2
2018-08-18T10:43:31.339Z,32.1
2018-08-18T10:44:33.795Z,32.2
2018-08-18T10:45:35.998Z,32.2
2018-08-18T10:46:37.887Z,32.2
2018-08-18T10:47:39.772Z,32.2
2018-08-18T10:48:42.226Z,32.2
2018-08-18T10:49:44.124Z,32.2
2018-08-18T10:50:46.049Z,32.2
2018-08-18T10:51:47.677Z,32.2
2018-08-18T10:52:49.845Z,32.2
2018-08-18T10:53:51.758Z,32.2
2018-08-18T10:54:53.663Z,32.2
2018-08-18T10:55:55.836Z,32.2
2018-08-18T10:56:58.278Z,32.2
2018-08-18T10:57:59.908Z,32.2
2018-08-18T10:59:02.360Z,32.2
2018-08-18T11:00:04.000Z,32.2
2018-08-18T11:01:06.455Z,32.2
2018-08-18T11:02:08.656Z,32.2
2018-08-18T11:03:10.558Z,32.2
2018-08-18T11:04:12.745Z,32.2
2018-08-18T11:05:14.937Z,32.2
2018-08-18T11:06:16.830Z,32.2
2018-08-18T11:07:19.287Z,32.2
2018-08-18T11:08:21.741Z,32.2
2018-08-18T11:09:23.905Z,32.2
2018-08-18T11:10:26.357Z,32.2
2018-08-18T11:11:28.258Z,32.2
2018-08-18T11:12:30.704Z,32.2
2018-08-18T11:13:32.887Z,32.2
2018-08-18T11:14:35.344Z,32.2
2018-08-18T11:15:36.941Z,32.2
2018-08-18T11:16:38.854Z,32.2
2018-08-18T11:17:40.778Z,32.2
2018-08-18T11:18:43.238Z,32.2
2018-08-18T11:19:45.678Z,32.2
2018-08-18T11:20:48.139Z,32.2
2018-08-18T11:21:50.445Z,32.2
2018-08-18T11:22:52.122Z,32.2
2018-08-18T11:23:54.282Z,32.2
2018-08-18T11:24:56.727Z,32.2
2018-08-18T11:25:59.186Z,32.2
2018-08-18T11:27:01.070Z,32.2
2018-08-18T11:28:03.262Z,32.2
2018-08-18T11:29:05.733Z,32.2
2018-08-18T11:30:07.907Z,32.2
2018-08-18T11:31:09.783Z,32.2
2018-08-18T11:32:11.694Z,32.2
2018-08-18T11:33:13.621Z,32.2
2018-08-18T11:34:15.800Z,32.2
2018-08-18T11:35:18.257Z,32.2
2018-08-18T11:36:20.416Z,32.2
2018-08-18T11:37:22.878Z,32.2
2018-08-18T11:38:25.349Z,32.2
2018-08-18T11:39:27.793Z,32.2
2018-08-18T11:40:29.961Z,32.2
2018-08-18T11:41:32.576Z,32.2
2018-08-18T11:42:34.597Z,32.2
2018-08-18T11:43:37.054Z,32.2
2018-08-18T11:44:39.506Z,32.2
2018-08-18T11:45:41.665Z,32.2
2018-08-18T11:46:43.843Z,32.2
2018-08-18T11:47:45.737Z,32.2
2018-08-18T11:48:47.907Z,32.2
2018-08-18T11:49:50.106Z,32.2
2018-08-18T11:50:52.564Z,32.2
2018-08-18T11:51:55.018Z,32.2
2018-08-18T11:52:56.914Z,32.2
2018-08-18T11:53:59.359Z,32.2
2018-08-18T11:55:01.548Z,32.2
2018-08-18T11:56:03.715Z,32.2
2018-08-18T11:57:06.166Z,32.2
2018-08-18T11:58:08.356Z,32.2
2018-08-18T11:59:10.568Z,32.2
2018-08-18T12:00:12.749Z,32.2
2018-08-18T12:01:14.657Z,32.2
2018-08-18T12:02:17.102Z,32.2
2018-08-18T12:03:19.276Z,32.2
2018-08-18T12:04:21.468Z,32.2
2018-08-18T12:05:23.625Z,32.2
2018-08-18T12:06:25.542Z,32.2
2018-08-18T12:07:27.995Z,32.2
2018-08-18T12:08:29.654Z,32.2
2018-08-18T12:09:32.097Z,32.2
2018-08-18T12:10:34.790Z,32.2
2018-08-18T12:11:37.479Z,32.2
2018-08-18T12:12:39.933Z,32.2
2018-08-18T12:13:42.374Z,32.2
2018-08-18T12:14:44.840Z,32.2
2018-08-18T12:15:47.063Z,32.2
2018-08-18T12:16:49.494Z,32.2
2018-08-18T12:17:51.938Z,32.2
2018-08-18T12:18:54.392Z,32.2
2018-08-18T12:19:56.566Z,32.2
2018-08-18T12:20:59.050Z,32.2
2018-08-18T12:22:01.196Z,32.2
2018-08-18T12:23:03.365Z,32.2
2018-08-18T12:24:05.549Z,32.2
2018-08-18T12:25:07.987Z,32.2
2018-08-18T12:26:10.436Z,32.2
2018-08-18T12:27:12.620Z,32.2
2018-08-18T12:28:14.609Z,32.2
2018-08-18T12:29:17.057Z,32.2
2018-08-18T12:30:19.497Z,32.2
2018-08-18T12:31:21.705Z,32.2
2018-08-18T12:32:24.149Z,32.2
2018-08-18T12:33:26.606Z,32.2
2018-08-18T12:34:28.504Z,32.2
2018-08-18T12:35:30.962Z,32.2
2018-08-18T12:36:33.397Z,32.2
2018-08-18T12:37:36.452Z,32.2
2018-08-18T12:38:38.739Z,32.2
2018-08-18T12:39:41.202Z,32.2
2018-08-18T12:40:43.641Z,32.2
2018-08-18T12:41:46.086Z,32.2
2018-08-18T12:42:48.533Z,32.2
2018-08-18T12:43:50.415Z,32.2
2018-08-18T12:44:52.866Z,32.2
2018-08-18T12:45:55.314Z,32.2
2018-08-18T12:46:57.497Z,32.2
2018-08-18T12:47:59.677Z,32.2
2018-08-18T12:49:02.130Z,32.2
2018-08-18T12:50:05.155Z,32.2
2018-08-18T12:51:08.144Z,32.2
2018-08-18T12:52:10.025Z,32.2
2018-08-18T12:53:12.198Z,32.2
2018-08-18T12:54:14.373Z,32.2
2018-08-18T12:55:16.556Z,32.2
2018-08-18T12:56:19.061Z,32.2
2018-08-18T12:57:21.575Z,32.2
2018-08-18T12:58:24.355Z,32.2
2018-08-18T12:59:26.868Z,32.2
2018-08-18T13:00:29.318Z,32.2
2018-08-18T13:01:31.776Z,32.2
2018-08-18T13:02:33.692Z,32.2
2018-08-18T13:03:36.136Z,32.3
2018-08-18T13:04:38.596Z,32.3
2018-08-18T13:05:40.489Z,32.3
2018-08-18T13:06:42.661Z,32.3
2018-08-18T13:07:45.110Z,32.3
2018-08-18T13:08:47.285Z,32.3
2018-08-18T13:09:49.450Z,32.3
2018-08-18T13:10:51.617Z,32.3
2018-08-18T13:11:53.542Z,32.3
2018-08-18T13:12:55.978Z,32.3
2018-08-18T13:13:57.900Z,32.3
2018-08-18T13:15:00.105Z,32.3
2018-08-18T13:16:02.306Z,32.3
2018-08-18T13:17:04.772Z,32.3
2018-08-18T13:18:07.225Z,32.3
2018-08-18T13:19:09.133Z,32.3
2018-08-18T13:20:11.319Z,32.3
2018-08-18T13:21:13.497Z,32.3
2018-08-18T13:22:15.648Z,32.3
2018-08-18T13:23:17.581Z,32.3
2018-08-18T13:24:20.039Z,32.3
2018-08-18T13:25:22.517Z,32.3
2018-08-18T13:26:25.102Z,32.3
2018-08-18T13:27:27.701Z,32.3
2018-08-18T13:28:29.864Z,32.3
2018-08-18T13:29:32.327Z,32.3
2018-08-18T13:30:34.503Z,32.3
2018-08-18T13:31:36.432Z,32.3
2018-08-18T13:32:38.364Z,32.3
2018-08-18T13:33:40.808Z,32.3
2018-08-18T13:34:43.286Z,32.3
2018-08-18T13:35:45.200Z,32.3
2018-08-18T13:36:47.722Z,32.3
2018-08-18T13:37:49.900Z,32.3
2018-08-18T13:38:52.089Z,32.3
2018-08-18T13:39:54.533Z,32.3
2018-08-18T13:40:56.723Z,32.3
2018-08-18T13:41:58.626Z,32.3
2018-08-18T13:43:01.072Z,32.3
2018-08-18T13:44:03.218Z,32.3
2018-08-18T13:45:05.674Z,32.3
2018-08-18T13:46:07.292Z,32.3
2018-08-18T13:47:09.267Z,32.3
2018-08-18T13:48:11.467Z,32.3